Flight Track Log - Related Links

Times and Time Zones

All times are in EDT time to prevent confusion due to time zone crossing. See the N919HP flight status page for this flight to view local times or setup timezone preferences in your user account.

Time Position Orientation Groundspeed Altitude Reporting Facility
EDT Latitude Longitude Course Direction KTS MPH feet Rate Location/Type
Mon 06:16:15 PM 33.8919 -78.0511 22° Northeast 162 186 4,000  Level Washington Center
Mon 06:17:15 PM 33.9403 -78.0400 11° North 128 147 5,800 1,587 Climbing Washington Center
Mon 06:18:16 PM 33.9822 -78.0286 13° North 142 163 7,200 1,500 Climbing Washington Center
Mon 06:19:15 PM 34.0369 -78.0103 16° North 170 196 8,800 1,412 Climbing Washington Center
Mon 06:20:15 PM 34.0956 -77.9894 16° North 196 226 10,000 1,438 Climbing Washington Center
Mon 06:21:00 PM 34.3298 -77.8767 22° Northeast  Level FlightAware Approximate
Mon 06:21:16 PM 34.1650 -77.9614 18° North 229 264 11,700  Level Washington Center
Mon 06:22:17 PM 34.2303 -77.9381 16° North 229 264 12,800 1,059 Climbing Washington Center
Mon 06:23:15 PM 34.2931 -77.9322 North 234 269 13,800 1,119 Climbing Washington Center
Mon 06:24:15 PM 34.3619 -77.9242 North 239 275 15,000 1,190 Climbing Washington Center
Mon 06:25:16 PM 34.4269 -77.9108 10° North 239 275 16,200 992 Climbing Washington Center
Mon 06:26:16 PM 34.4958 -77.9028 North 239 275 17,000 397 Climbing Washington Center
Mon 06:27:17 PM 34.5711 -77.8947 North 250 288 17,000 197 Level Washington Center
Mon 06:28:18 PM 34.6528 -77.8844 North 271 312 17,400 864 Climbing Washington Center
Mon 06:29:15 PM 34.7239 -77.8714 North 271 312 18,700 1,322 Climbing Washington Center
Mon 06:30:16 PM 34.7908 -77.8656 North 258 297 20,000 1,537 Climbing Washington Center
Mon 06:31:16 PM 34.8514 -77.8572 North 226 260 21,800 1,100 Climbing Washington Center
Mon 06:32:16 PM 34.9100 -77.8486 North 205 236 22,200 397 Climbing Washington Center
Mon 06:33:17 PM 34.9769 -77.8378 North 212 244 22,600 446 Climbing Washington Center
Mon 06:34:17 PM 35.0439 -77.8269 North 231 266 23,100 508 Climbing Washington Center
Mon 06:35:15 PM 35.1131 -77.8189 North 237 273 23,600 555 Climbing Washington Center
Mon 06:36:16 PM 35.1819 -77.8106 North 242 278 24,200 541 Climbing Washington Center
Mon 06:37:17 PM 35.2531 -77.8022 North 242 278 24,700 393 Climbing Washington Center
Mon 06:38:18 PM 35.3222 -77.7914 North 242 278 25,000 151 Climbing Washington Center
Mon 06:39:16 PM 35.3975 -77.7833 North 258 297 25,000  Level Washington Center
Mon 06:40:16 PM 35.4747 -77.7728 North 264 304 25,000  Level Washington Center
Mon 06:41:17 PM 35.5542 -77.7622 North 276 318 25,000  Level Washington Center
Mon 06:42:17 PM 35.6339 -77.7514 North 276 318 25,000  Level Washington Center
Mon 06:43:17 PM 35.7133 -77.7408 North 276 318 25,000  Level Washington Center
Mon 06:44:15 PM 35.7906 -77.7303 North 276 318 25,000  Level Washington Center
Mon 06:45:16 PM 35.8700 -77.7194 North 276 318 25,000  Level Washington Center
Mon 06:46:16 PM 35.9475 -77.7114 North 276 318 25,000  Level Washington Center
Mon 06:47:18 PM 36.0250 -77.6953 10° North 276 318 25,000  Level Washington Center
Mon 06:48:16 PM 36.1025 -77.6744 12° North 276 318 25,000  Level Washington Center
Mon 06:49:16 PM 36.1800 -77.6583 10° North 276 318 25,000  Level Washington Center
Mon 06:50:17 PM 36.2575 -77.6397 11° North 276 318 25,000  Level Washington Center
Mon 06:51:17 PM 36.3372 -77.6161 13° North 281 323 25,000  Level Washington Center
Mon 06:52:18 PM 36.4147 -77.5975 11° North 281 323 25,000  Level Washington Center
Mon 06:53:15 PM 36.4839 -77.5786 12° North 275 316 25,000  Level Washington Center
Mon 06:54:16 PM 36.5592 -77.5597 11° North 281 323 25,000  Level Washington Center
Mon 06:55:17 PM 36.6472 -77.5386 11° North 281 323 25,000  Level Washington Center
Mon 06:56:15 PM 36.7247 -77.5200 11° North 281 323 25,000  Level Washington Center
Mon 06:57:16 PM 36.8022 -77.4986 12° North 281 323 25,000  Level Washington Center
Mon 06:58:17 PM 36.8819 -77.4797 11° North 281 323 25,000  Level Washington Center
Mon 06:59:15 PM 36.9594 -77.4608 11° North 281 323 25,000  Level Washington Center
Mon 07:00:15 PM 37.0389 -77.4392 12° North 281 323 25,000 -98 Level Washington Center
Mon 07:01:17 PM 37.1186 -77.4178 12° North 281 323 24,800 -443 Descending Washington Center
Mon 07:02:17 PM 37.2003 -77.3989 10° North 281 323 24,100 -661 Descending Washington Center
Mon 07:03:15 PM 37.2839 -77.3772 12° North 292 336 23,500 -655 Descending Washington Center
Mon 07:04:16 PM 37.3700 -77.3506 14° North 299 344 22,800 -639 Descending Washington Center
Mon 07:05:17 PM 37.4536 -77.3264 13° North 299 344 22,200 -645 Descending Washington Center
Mon 07:06:17 PM 37.5375 -77.2994 14° North 299 344 21,500 -661 Descending Washington Center
Mon 07:07:15 PM 37.6192 -77.2725 15° North 299 344 20,900 -559 Descending Washington Center
Mon 07:08:15 PM 37.6989 -77.2428 16° North 299 344 20,400 -595 Descending Washington Center
Mon 07:09:16 PM 37.7744 -77.2050 22° Northeast 299 344 19,700 -744 Descending Washington Center
Mon 07:10:16 PM 37.8522 -77.1672 21° North 299 344 18,900 -1,041 Descending Washington Center
Mon 07:11:17 PM 37.9339 -77.1294 20° North 299 344 17,600 -958 Descending Washington Center
Mon 07:12:15 PM 38.0158 -77.0836 24° Northeast 309 356 17,000 -303 Descending Washington Center
Mon 07:13:16 PM 38.0753 -77.0108 44° Northeast 298 343 17,000  Level Washington Center
Mon 07:14:17 PM 38.1303 -76.9406 45° Northeast 285 328 17,000 -454 Level Washington Center
Mon 07:15:15 PM 38.1872 -76.8650 46° Northeast 280 322 16,100 -1,220 Descending Washington Center
Mon 07:16:15 PM 38.2467 -76.7842 47° Northeast 295 339 14,600 -1,339 Descending Washington Center
Mon 07:17:16 PM 38.2972 -76.7161 47° Northeast 307 353 13,400 -1,487 Descending Washington Center
Mon 07:18:08 PM 38.3625 -76.6378 43° Northeast 314 361 11,800 -1,646 Descending Washington Center
Mon 07:19:09 PM 38.4236 -76.5589 45° Northeast 311 358 10,300 -1,525 Descending Washington Center
Mon 07:20:10 PM 38.4806 -76.4803 47° Northeast 310 357 8,700 -1,500 Descending Washington Center
Mon 07:21:05 PM 38.5353 -76.4092 45° Northeast 301 346 7,400 -1,488 Descending Washington Center
Mon 07:22:15 PM 38.6025 -76.3169 47° Northeast 297 342 5,600 -1,145 Descending Washington Center
Mon 07:23:16 PM 38.6758 -76.2911 15° North 274 315 4,900 -590 Descending Washington Center
Mon 07:24:17 PM 38.7506 -76.3103 349° North 266 306 4,400 -893 Descending Washington Center
Mon 07:25:17 PM 38.8172 -76.3244 351° North 266 306 3,100 -908 Descending Washington Center
Mon 07:26:16 PM 38.9069 -76.3386 353° North 282 325 2,600 -391 Descending Washington Center
Mon 07:28:06 PM 39.0500 -76.3500 356° North 264 304 2,000 -212 Descending Potomac TRACON
Mon 07:29:06 PM 39.1167 -76.3500 360° North 265 305 2,000  Level Potomac TRACON
Mon 07:30:06 PM 39.1833 -76.3500 360° North 221 254 2,000 -50 Level Potomac TRACON
Mon 07:31:06 PM 39.2333 -76.3500 360° North 169 194 1,900 -450 Descending Potomac TRACON
Mon 07:32:06 PM 39.2833 -76.3500 360° North 135 155 1,100 -650 Descending Potomac TRACON
Mon 07:33:06 PM 39.3000 -76.3833 303° West 132 152 600 -500 Descending Potomac TRACON
Mon 07:36:00 PM 39.3167 -76.4000 142° Southeast  Level FlightAware Approximate
Mon 07:43:00 PM 39.3257 -76.4138 142° Southeast  Level Estimated
Mon 07:44:00 PM 39.3257 -76.4138 142° Southeast  Level Estimated
Mon 07:45:00 PM 39.3257 -76.4138 142° Southeast  Level Estimated

Login

Don't have an account? Register now (free) for customized features, flight alerts, and more!